Time;durP1;ratioP1;P1;durP2;ratioP2;P2;SDS_P1;SDS_P2;PMS_P1;PMS_P2;Temp;Humidity;BMP_temperature;BMP_pressure;BME280_temperature;BME280_humidity;BME280_pressure;Samples;Min_cycle;Max_cycle;Signal;HPM_P1;HPM_P2
2023/03/21 00:01:18;;;;;;;118.80;70.50;;;;;;;6.97;100.00;97980.81;109039;1254;59035;-80
2023/03/21 00:03:46;;;;;;;107.60;60.60;;;;;;;6.99;100.00;97983.67;109038;1254;59036;-78
2023/03/21 00:06:13;;;;;;;108.80;66.10;;;;;;;6.98;100.00;97978.02;109023;1254;73660;-80
2023/03/21 00:08:39;;;;;;;100.30;64.20;;;;;;;6.99;100.00;97971.13;108857;1254;59808;-80
2023/03/21 00:11:07;;;;;;;109.40;69.50;;;;;;;7.00;100.00;97975.45;108998;1254;71573;-80
2023/03/21 00:13:37;;;;;;;115.40;70.60;;;;;;;7.03;100.00;97976.13;108993;1254;59686;-78
2023/03/21 00:16:21;;;;;;;147.40;80.80;;;;;;;7.03;100.00;97972.20;109016;1254;60177;-80
2023/03/21 00:18:51;;;;;;;143.00;81.30;;;;;;;7.03;100.00;97967.73;109051;1254;73426;-80
2023/03/21 00:21:19;;;;;;;138.80;84.80;;;;;;;7.04;100.00;97964.81;109236;1254;70941;-78
2023/03/21 00:23:45;;;;;;;138.10;79.60;;;;;;;7.06;100.00;97959.81;109014;1254;72561;-79
2023/03/21 00:26:12;;;;;;;119.70;72.30;;;;;;;7.05;100.00;97959.11;109248;1254;58878;-80
2023/03/21 00:28:39;;;;;;;121.50;72.30;;;;;;;7.06;100.00;97957.87;109275;1254;60569;-79
2023/03/21 00:31:06;;;;;;;116.60;69.00;;;;;;;7.07;100.00;97953.18;109217;1254;75021;-80
2023/03/21 00:33:33;;;;;;;106.80;66.30;;;;;;;7.03;100.00;97954.79;108893;1254;59648;-78
2023/03/21 00:36:00;;;;;;;106.30;61.30;;;;;;;7.03;100.00;97952.53;108852;1254;72893;-79
2023/03/21 00:38:26;;;;;;;110.60;66.20;;;;;;;7.05;100.00;97952.80;109040;1254;59068;-81
2023/03/21 00:40:53;;;;;;;102.30;61.20;;;;;;;7.07;100.00;97955.66;109049;1254;59095;-82
2023/03/21 00:43:22;;;;;;;102.60;65.30;;;;;;;7.09;100.00;97953.54;109055;1254;75695;-78
2023/03/21 00:45:50;;;;;;;99.60;58.30;;;;;;;7.12;100.00;97949.52;108873;1254;70967;-78
2023/03/21 00:48:17;;;;;;;97.40;58.90;;;;;;;7.12;100.00;97946.50;109004;1254;72783;-79
2023/03/21 00:50:45;;;;;;;102.80;62.60;;;;;;;7.09;100.00;97942.11;109025;1254;59680;-78
2023/03/21 00:53:13;;;;;;;98.00;58.00;;;;;;;7.06;100.00;97933.88;109076;1254;60558;-78
2023/03/21 00:55:39;;;;;;;97.50;58.20;;;;;;;7.07;100.00;97931.04;109035;1254;74860;-78
2023/03/21 00:58:06;;;;;;;103.60;60.90;;;;;;;7.06;100.00;97932.33;109054;1254;70169;-81
2023/03/21 01:00:35;;;;;;;96.60;59.80;;;;;;;7.09;100.00;97938.07;109028;1254;59059;-78
2023/03/21 01:03:06;;;;;;;110.20;69.50;;;;;;;7.11;100.00;97936.95;109106;1254;59434;-79
2023/03/21 01:08:19;;;;;;;128.50;81.30;;;;;;;7.14;100.00;97945.16;109030;1254;73357;-78
2023/03/21 01:10:47;;;;;;;126.90;77.80;;;;;;;7.14;100.00;97945.27;108850;1254;70822;-77
2023/03/21 01:13:15;;;;;;;123.20;75.60;;;;;;;7.12;100.00;97946.66;109003;1254;72920;-77
2023/03/21 01:15:43;;;;;;;127.20;78.60;;;;;;;7.10;100.00;97942.12;109253;1254;58974;-79
2023/03/21 01:18:09;;;;;;;135.20;82.00;;;;;;;7.08;100.00;97941.94;109064;1254;58997;-78
2023/03/21 01:20:35;;;;;;;132.30;81.40;;;;;;;7.05;100.00;97940.73;109252;1254;59133;-79
2023/03/21 01:23:02;;;;;;;118.50;71.00;;;;;;;7.04;100.00;97933.23;109283;1254;58882;-79
2023/03/21 01:25:28;;;;;;;124.50;76.70;;;;;;;7.03;100.00;97934.64;109242;1254;59720;-78
2023/03/21 01:27:55;;;;;;;118.60;71.70;;;;;;;7.02;100.00;97931.77;109018;1254;59096;-79
2023/03/21 01:30:21;;;;;;;119.50;76.70;;;;;;;7.00;100.00;97934.71;109067;1254;59761;-78
2023/03/21 01:32:48;;;;;;;126.30;75.90;;;;;;;6.97;100.00;97932.54;109037;1254;59065;-78
2023/03/21 01:35:15;;;;;;;131.10;85.40;;;;;;;6.95;100.00;97931.83;109036;1254;72246;-78
2023/03/21 01:37:42;;;;;;;126.60;76.40;;;;;;;6.95;100.00;97929.55;109063;1254;59282;-79
2023/03/21 01:40:18;;;;;;;124.60;76.60;;;;;;;6.96;100.00;97937.43;108998;1254;59627;-78
2023/03/21 01:42:44;;;;;;;114.90;67.80;;;;;;;6.96;100.00;97934.30;109028;1254;59266;-79
2023/03/21 01:45:48;;;;;;;108.90;63.00;;;;;;;6.96;100.00;97927.09;109031;1254;59231;-78
2023/03/21 01:48:15;;;;;;;99.00;61.70;;;;;;;6.92;100.00;97925.83;108832;1254;254994;-79
2023/03/21 01:50:41;;;;;;;115.80;70.90;;;;;;;6.91;100.00;97927.15;108866;1254;59789;-78
2023/03/21 01:53:08;;;;;;;118.40;73.50;;;;;;;6.93;100.00;97931.66;109031;1254;59638;-79
2023/03/21 01:55:35;;;;;;;133.00;84.00;;;;;;;6.95;100.00;97928.75;108865;1254;59939;-78
2023/03/21 01:58:03;;;;;;;135.90;86.20;;;;;;;6.99;100.00;97934.70;109014;1254;74606;-79
2023/03/21 02:00:30;;;;;;;135.90;79.40;;;;;;;7.01;100.00;97935.60;108860;1254;70729;-79
2023/03/21 02:02:58;;;;;;;130.60;74.20;;;;;;;7.03;100.00;97936.46;109000;1254;72549;-78
2023/03/21 02:05:32;;;;;;;119.00;72.60;;;;;;;7.03;100.00;97936.36;108799;1254;59646;-79
2023/03/21 02:07:59;;;;;;;114.40;71.10;;;;;;;7.05;100.00;97944.17;109101;1254;59147;-79
2023/03/21 02:10:26;;;;;;;120.60;74.30;;;;;;;7.08;100.00;97946.02;109231;1254;73983;-79
2023/03/21 02:12:54;;;;;;;123.30;75.80;;;;;;;7.10;100.00;97953.61;109238;1254;70358;-79
2023/03/21 02:15:21;;;;;;;117.10;72.40;;;;;;;7.11;100.00;97957.12;109246;1254;72288;-80
2023/03/21 02:18:32;;;;;;;118.40;71.70;;;;;;;7.12;100.00;97961.96;109000;1254;59494;-78
2023/03/21 02:21:09;;;;;;;128.90;75.50;;;;;;;7.09;100.00;97972.66;109186;1256;60570;-80
2023/03/21 02:23:46;;;;;;;122.60;74.30;;;;;;;7.09;100.00;97965.61;108999;1255;73592;-78
2023/03/21 02:26:37;;;;;;;121.10;75.80;;;;;;;7.07;100.00;97961.80;109001;1255;70370;-79
2023/03/21 02:29:13;;;;;;;123.00;75.70;;;;;;;7.09;100.00;97969.17;108986;1255;74089;-80
2023/03/21 02:31:43;;;;;;;108.80;67.80;;;;;;;7.10;100.00;97965.40;108931;1256;59774;-79
2023/03/21 02:34:26;;;;;;;72.60;45.70;;;;;;;7.12;100.00;97964.23;108910;1256;59490;-80
2023/03/21 02:37:05;;;;;;;45.70;27.80;;;;;;;7.16;100.00;97961.77;108962;1255;75803;-79
2023/03/21 02:39:53;;;;;;;25.00;16.30;;;;;;;7.22;100.00;97963.70;109033;1255;70238;-78
2023/03/21 02:43:01;;;;;;;17.50;11.70;;;;;;;7.28;100.00;97966.40;109197;1255;71850;-78
2023/03/21 02:45:45;;;;;;;13.70;8.60;;;;;;;7.33;100.00;97962.42;108999;1254;59063;-78
2023/03/21 02:48:14;;;;;;;8.50;5.20;;;;;;;7.38;100.00;97958.64;108948;1254;60413;-79
2023/03/21 02:50:42;;;;;;;10.40;6.60;;;;;;;7.41;100.00;97959.45;109279;1254;74232;-80
2023/03/21 02:53:09;;;;;;;7.70;5.60;;;;;;;7.45;100.00;97955.45;109102;1254;70974;-80
2023/03/21 02:55:37;;;;;;;7.10;4.40;;;;;;;7.48;100.00;97950.70;109066;1254;71409;-78
2023/03/21 02:58:03;;;;;;;12.00;7.60;;;;;;;7.50;100.00;97946.23;109260;1254;59368;-78
2023/03/21 03:00:31;;;;;;;11.70;8.10;;;;;;;7.49;100.00;97947.48;108998;1254;58922;-78
2023/03/21 03:02:58;;;;;;;14.70;9.90;;;;;;;7.45;100.00;97944.98;109006;1254;73723;-78
2023/03/21 03:05:28;;;;;;;17.90;10.10;;;;;;;7.38;100.00;97939.00;109276;1254;58978;-79
2023/03/21 03:08:00;;;;;;;33.80;20.60;;;;;;;7.31;100.00;97940.59;109057;1254;71041;-78
2023/03/21 03:11:05;;;;;;;41.00;24.70;;;;;;;7.27;100.00;97944.45;109231;1254;59079;-79
2023/03/21 03:13:44;;;;;;;41.50;27.20;;;;;;;7.24;100.00;97946.67;108877;1254;59532;-78
2023/03/21 03:16:29;;;;;;;42.20;27.00;;;;;;;7.23;100.00;97952.77;109092;1254;73403;-79
2023/03/21 03:18:58;;;;;;;55.50;38.40;;;;;;;7.25;100.00;97955.36;109268;1254;70239;-78
2023/03/21 03:21:43;;;;;;;39.40;26.50;;;;;;;7.22;100.00;97951.15;108915;1254;72114;-80
2023/03/21 03:24:33;;;;;;;38.20;24.00;;;;;;;7.22;100.00;97953.19;109004;1254;59722;-80
2023/03/21 03:27:10;;;;;;;35.70;21.10;;;;;;;7.23;100.00;97950.12;108914;1254;59373;-78
2023/03/21 03:29:38;;;;;;;37.10;23.30;;;;;;;7.23;100.00;97946.89;109043;1254;74408;-79
2023/03/21 03:32:14;;;;;;;37.30;24.90;;;;;;;7.22;100.00;97941.44;108807;1254;70422;-78
2023/03/21 03:34:43;;;;;;;42.30;27.90;;;;;;;7.23;100.00;97936.77;109012;1254;71731;-77
2023/03/21 03:37:12;;;;;;;38.80;24.10;;;;;;;7.24;100.00;97937.84;109003;1254;59034;-79
2023/03/21 03:39:39;;;;;;;;;;;;;;;7.22;100.00;97938.05;109067;1254;59692;-78
2023/03/21 03:42:13;;;;;;;35.10;21.90;;;;;;;7.19;100.00;97936.36;109026;1254;74138;-78
2023/03/21 03:44:40;;;;;;;35.20;21.10;;;;;;;7.17;100.00;97932.66;108993;1254;70982;-80
2023/03/21 03:47:08;;;;;;;34.70;24.10;;;;;;;7.15;100.00;97933.46;109257;1254;58911;-79
2023/03/21 03:49:37;;;;;;;41.50;24.80;;;;;;;7.11;100.00;97931.67;109113;1254;58899;-78
2023/03/21 03:52:07;;;;;;;;;;;;;;;7.09;100.00;97930.90;109001;1254;59200;-79
2023/03/21 03:54:44;;;;;;;43.10;28.40;;;;;;;7.05;100.00;97929.31;109131;1254;73758;-80
2023/03/21 03:57:12;;;;;;;36.00;23.50;;;;;;;7.05;100.00;97927.05;109297;1254;70522;-79
2023/03/21 03:59:42;;;;;;;37.90;22.50;;;;;;;7.06;100.00;97929.47;109087;1254;71906;-79
2023/03/21 04:02:09;;;;;;;33.10;20.60;;;;;;;7.03;100.00;97927.90;109163;1254;58925;-79
2023/03/21 04:04:37;;;;;;;38.60;23.20;;;;;;;6.99;100.00;97931.30;109021;1254;60122;-78
2023/03/21 04:07:03;;;;;;;39.90;24.50;;;;;;;7.00;100.00;97933.86;109015;1254;73960;-78
2023/03/21 04:09:30;;;;;;;35.80;24.20;;;;;;;7.03;100.00;97938.63;109031;1254;69852;-79
2023/03/21 04:11:56;;;;;;;29.20;21.30;;;;;;;7.04;100.00;97938.95;109001;1254;73073;-80
2023/03/21 04:14:23;;;;;;;30.10;20.80;;;;;;;7.02;100.00;97935.12;108995;1254;59116;-78
2023/03/21 04:16:51;;;;;;;38.50;20.90;;;;;;;7.03;100.00;97939.98;108944;1254;60622;-78
2023/03/21 04:19:17;;;;;;;39.50;24.20;;;;;;;7.07;100.00;97942.95;109238;1254;74646;-79
2023/03/21 04:21:45;;;;;;;39.30;24.60;;;;;;;7.09;100.00;97941.84;109265;1254;70912;-79
2023/03/21 04:24:12;;;;;;;38.00;23.90;;;;;;;7.09;100.00;97944.05;109259;1254;72501;-80
2023/03/21 04:26:39;;;;;;;37.60;24.50;;;;;;;7.10;100.00;97943.24;109234;1254;58984;-79
2023/03/21 04:29:07;;;;;;;41.70;27.20;;;;;;;7.09;100.00;97945.17;109112;1254;59321;-79
2023/03/21 04:31:34;;;;;;;40.60;24.40;;;;;;;7.10;100.00;97944.27;109258;1254;73715;-79
2023/03/21 04:34:02;;;;;;;31.90;21.00;;;;;;;7.04;100.00;97943.16;109250;1254;70471;-80
2023/03/21 04:36:37;;;;;;;35.40;22.80;;;;;;;6.99;100.00;97940.74;109236;1254;72000;-80
2023/03/21 04:39:10;;;;;;;34.00;19.70;;;;;;;6.94;100.00;97942.70;109042;1254;59686;-78
2023/03/21 04:41:39;;;;;;;26.80;17.50;;;;;;;6.92;100.00;97940.31;109262;1254;58890;-78
2023/03/21 04:44:05;;;;;;;32.90;20.50;;;;;;;6.89;100.00;97944.65;109263;1253;74285;-80
2023/03/21 04:46:33;;;;;;;28.90;18.60;;;;;;;6.88;100.00;97942.01;109392;1253;70925;-77
2023/03/21 04:48:59;;;;;;;30.80;20.00;;;;;;;6.87;100.00;97944.64;109282;1252;72641;-78
2023/03/21 04:51:26;;;;;;;37.90;25.00;;;;;;;6.89;100.00;97945.67;109011;1253;59726;-78
2023/03/21 04:53:56;;;;;;;36.50;22.90;;;;;;;6.89;100.00;97939.70;109137;1254;59652;-78
2023/03/21 04:56:29;;;;;;;36.20;22.50;;;;;;;6.86;100.00;97936.12;109170;1255;74935;-80
2023/03/21 04:58:56;;;;;;;34.80;22.00;;;;;;;6.84;100.00;97935.95;109164;1254;70041;-79
2023/03/21 05:01:22;;;;;;;32.80;20.60;;;;;;;6.78;100.00;97941.39;109187;1253;72258;-78
2023/03/21 05:03:49;;;;;;;28.50;20.10;;;;;;;6.75;100.00;97943.79;109023;1257;59091;-78
2023/03/21 05:06:16;;;;;;;32.70;19.60;;;;;;;6.71;100.00;97940.09;109003;1253;59725;-79
2023/03/21 05:08:42;;;;;;;34.20;23.20;;;;;;;6.72;100.00;97945.48;109017;1253;75598;-78
2023/03/21 05:11:09;;;;;;;31.60;22.00;;;;;;;6.70;100.00;97944.94;108817;1253;71322;-78
2023/03/21 05:13:36;;;;;;;32.70;21.20;;;;;;;6.70;100.00;97945.90;108954;1253;72501;-78
2023/03/21 05:16:03;;;;;;;34.80;21.40;;;;;;;6.68;100.00;97944.80;108966;1257;59094;-80
2023/03/21 05:18:33;;;;;;;29.00;18.90;;;;;;;6.65;100.00;97942.40;108988;1254;59011;-79
2023/03/21 05:21:00;;;;;;;29.50;18.70;;;;;;;6.62;100.00;97936.73;109016;1254;73987;-79
2023/03/21 05:23:30;;;;;;;31.10;18.50;;;;;;;6.60;100.00;97939.46;108989;1253;59694;-78
2023/03/21 05:25:56;;;;;;;27.50;17.70;;;;;;;6.62;100.00;97940.82;109052;1254;72537;-78
2023/03/21 05:28:30;;;;;;;30.90;18.40;;;;;;;6.63;100.00;97941.73;109006;1253;59165;-79
2023/03/21 05:30:57;;;;;;;30.60;19.20;;;;;;;6.68;100.00;97941.96;108941;1254;60484;-79
2023/03/21 05:33:23;;;;;;;29.30;18.70;;;;;;;6.72;100.00;97940.90;108982;1254;59734;-79
2023/03/21 05:35:50;;;;;;;22.50;15.10;;;;;;;6.77;100.00;97943.20;108943;1255;58979;-78
2023/03/21 05:38:17;;;;;;;24.40;15.70;;;;;;;6.81;100.00;97944.69;108973;1254;71980;-79
2023/03/21 05:40:47;;;;;;;21.90;14.00;;;;;;;6.81;100.00;97948.84;108981;1253;59704;-80
2023/03/21 05:43:13;;;;;;;22.10;13.40;;;;;;;6.83;100.00;97946.70;108788;1256;60193;-78
2023/03/21 05:45:39;;;;;;;21.40;14.40;;;;;;;6.88;100.00;97954.30;108716;1256;59551;-78
2023/03/21 05:48:06;;;;;;;22.70;14.20;;;;;;;6.94;100.00;97951.27;109031;1255;60222;-77
2023/03/21 05:50:32;;;;;;;18.30;12.50;;;;;;;7.02;100.00;97948.26;109012;1254;59139;-79
2023/03/21 05:52:59;;;;;;;19.30;12.90;;;;;;;7.11;100.00;97953.11;108845;1256;59002;-78
2023/03/21 05:55:25;;;;;;;19.80;13.20;;;;;;;7.20;100.00;97958.14;108989;1256;59700;-78
2023/03/21 05:57:51;;;;;;;20.80;14.80;;;;;;;7.28;100.00;97957.23;109014;1253;59789;-79
2023/03/21 06:00:20;;;;;;;19.40;11.50;;;;;;;7.34;100.00;97957.52;108959;1254;59312;-77
2023/03/21 06:02:47;;;;;;;21.00;12.30;;;;;;;7.38;100.00;97960.20;108974;1255;73798;-78
2023/03/21 06:05:13;;;;;;;16.80;10.90;;;;;;;7.40;100.00;97959.89;108969;1254;59675;-79
2023/03/21 06:07:40;;;;;;;19.30;12.80;;;;;;;7.43;100.00;97961.52;108999;1254;59558;-78
2023/03/21 06:10:07;;;;;;;16.80;10.90;;;;;;;7.46;100.00;97960.04;109032;1256;72838;-79
2023/03/21 06:12:33;;;;;;;19.80;12.80;;;;;;;7.51;100.00;97957.78;108945;1254;70920;-77
2023/03/21 06:15:00;;;;;;;23.30;14.40;;;;;;;7.56;100.00;97959.93;108942;1253;59609;-78
2023/03/21 06:17:27;;;;;;;24.70;15.10;;;;;;;7.61;100.00;97962.23;108953;1254;59130;-78
2023/03/21 06:19:53;;;;;;;19.40;12.10;;;;;;;7.64;100.00;97961.20;108972;1254;59626;-80
2023/03/21 06:22:21;;;;;;;19.10;11.50;;;;;;;7.69;100.00;97966.63;108899;1254;73677;-78
2023/03/21 06:24:47;;;;;;;16.80;11.60;;;;;;;7.72;100.00;97969.56;108925;1256;60760;-79
2023/03/21 06:27:14;;;;;;;14.00;10.00;;;;;;;7.73;100.00;97968.92;108910;1255;59348;-78
2023/03/21 06:29:41;;;;;;;14.20;9.20;;;;;;;7.75;100.00;97972.91;108846;1255;59576;-80
2023/03/21 06:32:07;;;;;;;20.50;12.90;;;;;;;7.77;100.00;97969.59;109098;1253;59127;-77
2023/03/21 06:34:34;;;;;;;19.90;12.60;;;;;;;7.83;100.00;97971.92;109011;1256;59662;-79
2023/03/21 06:37:00;;;;;;;19.70;14.40;;;;;;;7.90;100.00;97970.83;108917;1254;59180;-78
2023/03/21 06:39:27;;;;;;;21.50;15.10;;;;;;;7.94;100.00;97971.64;108970;1256;71922;-78
2023/03/21 06:41:53;;;;;;;21.70;14.10;;;;;;;7.99;100.00;97964.23;108789;1256;59767;-80
2023/03/21 06:44:20;;;;;;;19.50;13.10;;;;;;;8.05;100.00;97963.55;108848;1254;59003;-79
2023/03/21 06:46:47;;;;;;;20.40;14.20;;;;;;;8.11;100.00;97968.59;109004;1253;74902;-79
2023/03/21 06:49:13;;;;;;;23.90;16.80;;;;;;;8.16;100.00;97967.58;108991;1255;59348;-78
2023/03/21 06:51:40;;;;;;;23.10;16.90;;;;;;;8.24;100.00;97969.55;108982;1255;59556;-79
2023/03/21 06:54:06;;;;;;;45.70;18.30;;;;;;;8.34;100.00;97965.33;108836;1254;59217;-80
2023/03/21 06:56:32;;;;;;;24.60;16.00;;;;;;;8.41;100.00;97969.63;108861;1256;59224;-79
2023/03/21 06:58:59;;;;;;;25.00;16.20;;;;;;;8.43;100.00;97970.59;108896;1253;61020;-79
2023/03/21 07:01:26;;;;;;;21.90;15.10;;;;;;;8.46;100.00;97968.55;108754;1258;60698;-79
2023/03/21 07:03:55;;;;;;;20.80;13.80;;;;;;;8.48;100.00;97968.13;108788;1254;72530;-80
2023/03/21 07:06:21;;;;;;;;;;;;;;;8.52;100.00;97971.05;108670;1254;60594;-78
2023/03/21 07:08:48;;;;;;;21.30;13.80;;;;;;;8.56;100.00;97972.02;108816;1256;59145;-80
2023/03/21 07:11:15;;;;;;;23.30;15.10;;;;;;;8.66;100.00;97972.42;108994;1254;59368;-78
2023/03/21 07:13:41;;;;;;;20.10;13.00;;;;;;;8.72;100.00;97966.86;108974;1253;71072;-80
2023/03/21 07:16:08;;;;;;;16.40;12.30;;;;;;;8.78;100.00;97967.62;108947;1254;59487;-79
2023/03/21 07:18:35;;;;;;;14.80;9.60;;;;;;;8.93;100.00;97964.83;109023;1254;59591;-78
2023/03/21 07:21:02;;;;;;;18.50;12.60;;;;;;;9.10;100.00;97966.71;108931;1256;59753;-79
2023/03/21 07:23:28;;;;;;;16.80;12.40;;;;;;;9.40;100.00;97968.41;109040;1253;59735;-78
2023/03/21 07:25:55;;;;;;;17.50;11.20;;;;;;;10.52;100.00;97972.45;108985;1254;59571;-78
2023/03/21 07:28:21;;;;;;;16.00;11.20;;;;;;;10.79;100.00;97973.37;108911;1254;59656;-80
2023/03/21 07:30:53;;;;;;;15.90;10.40;;;;;;;10.65;100.00;97968.80;108751;1254;60074;-80
2023/03/21 07:33:20;;;;;;;15.30;10.50;;;;;;;10.79;100.00;97965.77;109012;1254;59089;-80
2023/03/21 07:35:46;;;;;;;13.00;10.20;;;;;;;10.95;100.00;97961.64;108873;1253;74879;-78
2023/03/21 07:38:15;;;;;;;12.50;8.60;;;;;;;11.42;100.00;97963.23;109018;1254;59419;-78
2023/03/21 07:40:42;;;;;;;;;;;;;;;12.31;100.00;97966.45;109230;1253;72499;-78
2023/03/21 07:43:08;;;;;;;14.40;12.90;;;;;;;13.53;100.00;97963.50;109122;1253;59724;-80
2023/03/21 07:45:35;;;;;;;10.60;7.30;;;;;;;14.00;100.00;97962.30;108996;1255;59014;-77
2023/03/21 07:48:01;;;;;;;10.70;8.90;;;;;;;13.69;100.00;97964.38;109021;1254;59498;-79
2023/03/21 07:50:28;;;;;;;9.20;6.50;;;;;;;13.32;100.00;97963.23;109214;1254;58965;-80
2023/03/21 07:52:54;;;;;;;13.80;10.80;;;;;;;12.96;100.00;97966.79;108888;1253;59805;-80
2023/03/21 07:55:21;;;;;;;12.90;9.10;;;;;;;12.67;100.00;97969.91;108959;1255;59697;-81
2023/03/21 07:57:50;;;;;;;9.30;7.10;;;;;;;12.48;100.00;97969.67;109002;1254;59099;-80
2023/03/21 08:00:23;;;;;;;10.80;8.10;;;;;;;12.66;99.92;97968.88;108967;1254;74505;-80
2023/03/21 08:02:53;;;;;;;11.30;7.60;;;;;;;12.65;99.55;97970.42;109072;1254;69991;-78
2023/03/21 08:05:21;;;;;;;16.50;10.30;;;;;;;12.75;99.10;97971.15;109029;1256;72971;-79
2023/03/21 08:07:48;;;;;;;19.20;11.00;;;;;;;12.87;99.52;97973.64;109000;1253;60676;-78
2023/03/21 08:10:15;;;;;;;16.40;11.10;;;;;;;12.82;98.17;97973.70;108942;1253;60369;-79
2023/03/21 08:12:42;;;;;;;18.00;12.50;;;;;;;12.72;98.74;97974.89;109041;1253;74023;-80
2023/03/21 08:15:09;;;;;;;63.80;33.10;;;;;;;12.75;98.15;97977.02;109075;1255;71680;-78
2023/03/21 08:17:36;;;;;;;25.60;15.40;;;;;;;12.69;97.91;97972.00;109033;1255;71984;-79
2023/03/21 08:20:07;;;;;;;34.10;18.20;;;;;;;12.82;99.25;97973.81;109041;1255;59670;-79
2023/03/21 08:22:34;;;;;;;12.80;9.10;;;;;;;12.99;98.54;97975.08;109049;1254;60239;-80
2023/03/21 08:25:04;;;;;;;8.00;5.50;;;;;;;12.80;94.92;97979.23;109067;1254;74751;-81
2023/03/21 08:27:31;;;;;;;8.00;4.80;;;;;;;12.70;91.74;97978.23;109024;1254;70990;-81
2023/03/21 08:29:58;;;;;;;8.90;5.30;;;;;;;13.38;94.95;97973.85;109073;1253;71354;-80
2023/03/21 08:32:28;;;;;;;5.20;4.10;;;;;;;13.74;93.51;97977.44;109066;1254;59713;-80
2023/03/21 08:35:01;;;;;;;6.10;4.70;;;;;;;13.28;89.21;97974.29;108927;1254;59703;-78
2023/03/21 08:37:27;;;;;;;7.00;4.70;;;;;;;12.80;89.71;97975.31;108927;1253;73398;-79
2023/03/21 08:39:54;;;;;;;6.60;4.10;;;;;;;12.54;92.12;97979.98;109024;1253;59645;-78
2023/03/21 08:42:22;;;;;;;5.90;4.20;;;;;;;12.40;93.12;97987.35;109069;1253;59693;-78
2023/03/21 08:44:48;;;;;;;6.80;4.30;;;;;;;12.14;93.56;97979.91;109079;1253;59040;-78
2023/03/21 08:47:15;;;;;;;9.00;4.90;;;;;;;11.91;94.48;97982.14;108975;1254;59660;-78
2023/03/21 08:49:44;;;;;;;9.70;4.90;;;;;;;11.89;95.56;97984.87;108844;1254;73690;-80
2023/03/21 08:52:11;;;;;;;6.60;4.60;;;;;;;11.83;95.94;97986.79;109024;1253;70488;-79
2023/03/21 08:54:37;;;;;;;5.70;4.00;;;;;;;11.83;96.19;97987.98;109105;1253;60102;-79
2023/03/21 08:57:04;;;;;;;7.10;5.00;;;;;;;11.77;95.93;97989.66;109009;1254;59562;-78
2023/03/21 08:59:30;;;;;;;6.60;4.40;;;;;;;11.59;94.84;97988.63;108998;1253;59841;-79
2023/03/21 09:01:56;;;;;;;7.30;5.20;;;;;;;11.61;95.40;97986.81;109053;1256;59792;-80
2023/03/21 09:04:24;;;;;;;9.60;6.20;;;;;;;11.76;95.45;97988.10;109030;1253;59721;-78
2023/03/21 09:06:51;;;;;;;7.20;4.30;;;;;;;11.90;94.67;97985.79;108992;1255;72780;-79
2023/03/21 09:09:17;;;;;;;7.50;4.20;;;;;;;12.03;93.73;97988.46;108967;1257;59715;-79
2023/03/21 09:11:44;;;;;;;7.70;5.00;;;;;;;11.96;92.49;97988.05;108822;1254;59635;-79
2023/03/21 09:14:11;;;;;;;9.70;5.80;;;;;;;12.10;93.19;97991.31;108817;1256;76557;-78
2023/03/21 09:16:37;;;;;;;8.70;5.80;;;;;;;11.95;92.40;97992.89;108975;1253;59346;-79
2023/03/21 09:19:07;;;;;;;9.10;4.90;;;;;;;11.63;93.63;97991.09;108909;1256;59357;-77
2023/03/21 09:21:34;;;;;;;7.70;5.30;;;;;;;11.45;95.17;97993.33;108940;1254;59426;-77
2023/03/21 09:24:01;;;;;;;9.10;6.10;;;;;;;11.31;96.79;97993.19;108933;1257;59677;-79
2023/03/21 09:26:28;;;;;;;9.30;6.20;;;;;;;11.01;97.25;97993.27;108948;1256;74942;-77
2023/03/21 09:28:55;;;;;;;10.30;6.20;;;;;;;10.85;98.02;97995.12;109049;1253;71433;-79
2023/03/21 09:31:24;;;;;;;12.10;7.20;;;;;;;10.55;100.00;97999.27;108979;1254;60601;-79
2023/03/21 09:33:51;;;;;;;13.70;9.00;;;;;;;10.36;100.00;98001.90;108793;1254;59870;-77
2023/03/21 09:36:19;;;;;;;14.20;9.40;;;;;;;9.95;100.00;97999.88;109011;1253;59054;-77
2023/03/21 09:38:47;;;;;;;13.00;10.30;;;;;;;9.68;100.00;98001.14;108889;1255;74412;-79
2023/03/21 09:41:38;;;;;;;12.60;8.10;;;;;;;9.58;100.00;98005.48;109076;1253;72232;-79
2023/03/21 09:44:32;;;;;;;15.80;11.30;;;;;;;9.33;100.00;98010.45;108919;1253;72927;-79
2023/03/21 09:47:05;;;;;;;10.50;7.30;;;;;;;9.24;100.00;98013.04;108971;1254;60666;-77
2023/03/21 09:49:39;;;;;;;10.20;7.00;;;;;;;9.09;100.00;98012.02;109051;1254;59634;-80
2023/03/21 09:52:31;;;;;;;11.50;8.10;;;;;;;9.09;100.00;98014.40;109134;1253;75783;-79
2023/03/21 09:54:57;;;;;;;19.00;12.90;;;;;;;9.04;100.00;98017.20;109116;1254;70720;-77
2023/03/21 09:57:38;;;;;;;13.40;8.50;;;;;;;9.04;100.00;98018.50;108880;1254;72154;-77
2023/03/21 10:00:18;;;;;;;11.80;7.20;;;;;;;9.11;100.00;98017.48;109051;1257;59505;-79
2023/03/21 10:02:48;;;;;;;8.60;6.00;;;;;;;9.13;100.00;98016.39;108871;1254;59923;-77
2023/03/21 10:05:21;;;;;;;11.40;7.40;;;;;;;9.13;100.00;98017.27;108788;1261;75088;-79
2023/03/21 10:08:13;;;;;;;11.10;8.40;;;;;;;9.15;100.00;98019.44;108970;1255;70698;-79
2023/03/21 10:10:48;;;;;;;14.20;8.00;;;;;;;9.15;100.00;98020.13;108999;1254;73108;-77
2023/03/21 10:13:25;;;;;;;12.80;8.40;;;;;;;9.17;100.00;98023.80;108966;1253;60042;-79
2023/03/21 10:16:16;;;;;;;13.20;9.10;;;;;;;9.13;100.00;98024.45;108872;1256;60326;-78
2023/03/21 10:18:43;;;;;;;12.70;9.40;;;;;;;9.13;100.00;98028.89;108945;1255;73216;-79
2023/03/21 10:21:20;;;;;;;13.70;9.40;;;;;;;9.07;100.00;98030.23;108967;1254;59509;-79
2023/03/21 10:23:50;;;;;;;13.50;9.90;;;;;;;8.97;100.00;98029.75;108969;1253;72603;-79
2023/03/21 10:26:18;;;;;;;14.80;10.50;;;;;;;8.98;100.00;98032.07;109052;1258;59422;-77
2023/03/21 10:28:45;;;;;;;15.10;9.50;;;;;;;9.05;100.00;98025.64;109040;1258;60419;-79
2023/03/21 10:31:15;;;;;;;16.40;10.80;;;;;;;9.04;100.00;98022.29;109029;1253;73844;-80
2023/03/21 10:33:43;;;;;;;16.10;11.00;;;;;;;9.09;100.00;98021.86;108938;1254;71267;-77
2023/03/21 10:36:11;;;;;;;15.60;10.30;;;;;;;9.21;100.00;98022.13;109014;1254;71350;-77
2023/03/21 10:38:39;;;;;;;15.40;10.60;;;;;;;9.28;100.00;98022.20;108916;1254;59806;-79
2023/03/21 10:41:06;;;;;;;14.90;9.50;;;;;;;9.24;100.00;98021.32;108929;1259;59334;-79
2023/03/21 10:43:36;;;;;;;16.30;10.20;;;;;;;9.28;100.00;98024.12;108992;1254;59019;-78
2023/03/21 10:46:08;;;;;;;15.60;9.50;;;;;;;9.34;100.00;98026.73;109066;1257;70315;-77
2023/03/21 10:48:36;;;;;;;12.90;9.20;;;;;;;9.46;100.00;98025.85;109021;1254;71585;-78
2023/03/21 10:51:02;;;;;;;15.50;9.20;;;;;;;9.51;100.00;98033.09;109084;1254;59676;-78
2023/03/21 10:53:31;;;;;;;15.10;9.10;;;;;;;9.47;100.00;98030.71;108882;1253;60194;-77
2023/03/21 10:55:59;;;;;;;15.60;9.00;;;;;;;9.47;100.00;98030.55;108866;1254;72871;-79
2023/03/21 10:58:27;;;;;;;18.40;11.40;;;;;;;9.56;100.00;98033.95;108976;1253;70240;-78
2023/03/21 11:01:00;;;;;;;13.50;8.10;;;;;;;9.58;100.00;98031.36;108884;1254;72294;-78
2023/03/21 11:03:31;;;;;;;17.70;9.50;;;;;;;9.70;100.00;98029.39;109026;1254;59365;-80
2023/03/21 11:06:20;;;;;;;15.80;9.80;;;;;;;9.76;100.00;98030.73;109053;1254;60876;-80
2023/03/21 11:08:53;;;;;;;15.90;8.80;;;;;;;9.96;100.00;98030.46;108899;1256;73721;-80
2023/03/21 11:11:36;;;;;;;18.40;8.90;;;;;;;10.04;100.00;98028.77;108800;1261;69666;-80
2023/03/21 11:14:06;;;;;;;16.40;10.20;;;;;;;10.12;100.00;98029.71;108954;1254;71930;-80
2023/03/21 11:16:40;;;;;;;16.20;9.90;;;;;;;10.15;100.00;98026.98;108876;1254;59843;-80
2023/03/21 11:19:17;;;;;;;14.70;9.30;;;;;;;10.14;100.00;98027.86;108992;1255;59343;-78
2023/03/21 11:21:43;;;;;;;12.60;8.30;;;;;;;10.13;100.00;98029.58;108951;1254;74459;-78
2023/03/21 11:24:13;;;;;;;13.70;8.70;;;;;;;9.96;100.00;98028.13;108873;1254;59756;-80
2023/03/21 11:26:42;;;;;;;14.10;9.00;;;;;;;9.98;100.00;98031.21;108968;1259;72611;-78